Time;durP1;ratioP1;P1;durP2;ratioP2;P2;SDS_P1;SDS_P2;PMS_P1;PMS_P2;Temp;Humidity;BMP_temperature;BMP_pressure;BME280_temperature;BME280_humidity;BME280_pressure;Samples;Min_cycle;Max_cycle;Signal;HPM_P1;HPM_P2
2022/01/18 00:02:24;;;;;;;49.42;7.05;;;;;;;;;;5071819;28;20046;-66
2022/01/18 00:04:50;;;;;;;47.50;6.38;;;;;;;;;;5071812;28;20036;-66
2022/01/18 00:07:16;;;;;;;49.10;7.93;;;;;;;;;;5070460;28;20051;-66
2022/01/18 00:09:42;;;;;;;48.17;6.82;;;;;;;;;;5070229;28;20064;-66
2022/01/18 00:12:54;;;;;;;42.85;6.25;;;;;;;;;;5070735;28;20483;-66
2022/01/18 00:17:54;;;;;;;52.90;7.88;;;;;;;;;;5071664;28;20044;-67
2022/01/18 00:20:32;;;;;;;47.55;6.88;;;;;;;;;;5071603;28;20052;-67
2022/01/18 00:22:58;;;;;;;52.20;6.65;;;;;;;;;;5071101;28;20076;-67
2022/01/18 00:25:24;;;;;;;52.88;6.40;;;;;;;;;;5071258;28;20041;-67
2022/01/18 00:27:50;;;;;;;38.10;5.88;;;;;;;;;;5071843;28;20430;-67
2022/01/18 00:33:17;;;;;;;52.30;6.88;;;;;;;;;;5071671;28;20131;-66
2022/01/18 00:35:45;;;;;;;42.42;6.55;;;;;;;;;;5071795;28;20032;-66
2022/01/18 00:38:27;;;;;;;47.03;6.55;;;;;;;;;;5103512;28;20043;-66
2022/01/18 00:40:53;;;;;;;48.33;6.50;;;;;;;;;;5104236;28;20048;-66
2022/01/18 00:43:19;;;;;;;39.63;5.82;;;;;;;;;;5071177;28;20441;-66
2022/01/18 00:45:45;;;;;;;47.95;6.97;;;;;;;;;;5070897;28;20040;-66
2022/01/18 00:48:12;;;;;;;37.42;5.40;;;;;;;;;;5071573;28;20044;-66
2022/01/18 00:50:38;;;;;;;41.03;5.47;;;;;;;;;;5103930;28;20584;-66
2022/01/18 00:53:09;;;;;;;43.90;6.70;;;;;;;;;;5070573;28;20044;-66
2022/01/18 00:55:46;;;;;;;35.90;6.18;;;;;;;;;;5071527;28;20116;-67
2022/01/18 00:58:13;;;;;;;56.25;6.90;;;;;;;;;;5104042;28;20041;-67
2022/01/18 01:00:39;;;;;;;53.40;6.65;;;;;;;;;;5075032;28;20367;-67
2022/01/18 01:03:05;;;;;;;37.35;5.72;;;;;;;;;;5075504;28;20041;-66
2022/01/18 01:05:31;;;;;;;37.25;6.25;;;;;;;;;;5107681;28;20041;-67
2022/01/18 01:07:57;;;;;;;46.42;7.28;;;;;;;;;;5074732;28;20036;-67
2022/01/18 01:10:23;;;;;;;37.63;6.00;;;;;;;;;;5075561;28;20422;-67
2022/01/18 01:12:49;;;;;;;47.75;7.07;;;;;;;;;;5075596;28;20032;-67
2022/01/18 01:15:18;;;;;;;37.05;5.93;;;;;;;;;;5107129;28;20120;-67
2022/01/18 01:17:51;;;;;;;41.35;6.40;;;;;;;;;;5107710;28;20121;-67
2022/01/18 01:34:34;;;;;;;49.38;7.43;;;;;;;;;;5075065;28;20049;-67
2022/01/18 01:42:16;;;;;;;51.05;7.65;;;;;;;;;;5074937;28;20092;-67
2022/01/18 01:44:47;;;;;;;44.67;6.90;;;;;;;;;;5072698;28;20055;-67
2022/01/18 01:47:17;;;;;;;47.50;6.40;;;;;;;;;;5074774;28;20048;-67
2022/01/18 01:49:44;;;;;;;50.40;6.97;;;;;;;;;;5074799;28;20098;-67
2022/01/18 01:52:11;;;;;;;43.45;6.97;;;;;;;;;;5072408;28;20040;-66
2022/01/18 01:54:38;;;;;;;54.47;7.32;;;;;;;;;;5074184;28;20052;-67
2022/01/18 01:57:05;;;;;;;49.60;6.78;;;;;;;;;;5074497;28;20047;-67
2022/01/18 01:59:31;;;;;;;38.00;6.03;;;;;;;;;;5073884;28;20072;-67
2022/01/18 02:01:57;;;;;;;39.70;7.60;;;;;;;;;;5074192;28;20047;-66
2022/01/18 02:04:23;;;;;;;34.55;5.93;;;;;;;;;;5074285;28;20044;-66
2022/01/18 02:06:49;;;;;;;37.33;6.25;;;;;;;;;;5073589;28;20036;-66
2022/01/18 02:09:15;;;;;;;33.63;6.22;;;;;;;;;;5072722;28;20044;-66
2022/01/18 02:11:41;;;;;;;38.72;6.07;;;;;;;;;;5073175;28;20575;-66
2022/01/18 02:14:13;;;;;;;44.08;6.93;;;;;;;;;;5072125;28;20120;-66
2022/01/18 02:22:10;;;;;;;36.20;6.07;;;;;;;;;;5073189;28;20059;-66
2022/01/18 02:24:36;;;;;;;43.50;6.07;;;;;;;;;;5073492;28;20084;-66
2022/01/18 02:27:03;;;;;;;45.05;6.57;;;;;;;;;;5073668;28;20052;-66
2022/01/18 02:29:29;;;;;;;43.78;7.22;;;;;;;;;;5105830;28;20044;-66
2022/01/18 02:31:56;;;;;;;37.63;6.78;;;;;;;;;;5106414;28;20043;-66
2022/01/18 02:34:22;;;;;;;46.38;6.65;;;;;;;;;;5106179;28;20417;-66
2022/01/18 02:36:48;;;;;;;40.33;6.03;;;;;;;;;;5105599;28;20037;-66
2022/01/18 02:39:18;;;;;;;31.55;5.88;;;;;;;;;;5106177;28;20631;-67
2022/01/18 02:41:51;;;;;;;30.38;5.95;;;;;;;;;;5106197;28;20059;-67
2022/01/18 02:44:17;;;;;;;35.40;5.38;;;;;;;;;;5105461;28;20063;-67
2022/01/18 02:46:43;;;;;;;41.13;5.85;;;;;;;;;;5073702;28;20042;-67
2022/01/18 02:49:10;;;;;;;33.38;5.35;;;;;;;;;;5073317;28;20036;-67
2022/01/18 02:51:36;;;;;;;37.20;6.10;;;;;;;;;;5105179;28;20051;-67
2022/01/18 02:54:06;;;;;;;30.05;5.60;;;;;;;;;;5105903;28;20646;-67
2022/01/18 02:56:34;;;;;;;40.55;5.95;;;;;;;;;;5105711;28;20052;-66
2022/01/18 02:59:14;;;;;;;26.65;5.30;;;;;;;;;;5072700;28;20064;-66
2022/01/18 03:04:25;;;;;;;23.17;4.40;;;;;;;;;;5073187;28;20063;-66
2022/01/18 03:06:51;;;;;;;33.90;4.15;;;;;;;;;;5072338;28;20048;-66
2022/01/18 03:09:17;;;;;;;28.65;5.03;;;;;;;;;;5105890;28;20048;-66
2022/01/18 03:11:44;;;;;;;30.17;5.10;;;;;;;;;;5105540;28;20036;-66
2022/01/18 03:14:10;;;;;;;37.70;5.70;;;;;;;;;;5072445;28;20040;-66
2022/01/18 03:16:36;;;;;;;26.55;4.60;;;;;;;;;;5105488;28;20051;-66
2022/01/18 03:19:02;;;;;;;33.72;5.28;;;;;;;;;;5073061;28;20048;-66
2022/01/18 03:21:29;;;;;;;39.25;6.10;;;;;;;;;;5071979;28;20071;-66
2022/01/18 03:24:10;;;;;;;28.45;4.82;;;;;;;;;;5072565;28;20043;-66
2022/01/18 03:28:04;;;;;;;30.40;4.63;;;;;;;;;;5095753;28;20060;-66
2022/01/18 03:29:23;;;;;;;32.20;4.55;;;;;;;;;;5071805;28;20279;-67
2022/01/18 03:31:49;;;;;;;31.30;4.85;;;;;;;;;;5071146;28;20437;-67
2022/01/18 03:34:15;;;;;;;22.80;4.07;;;;;;;;;;5072578;28;20044;-67
2022/01/18 03:36:41;;;;;;;29.92;4.32;;;;;;;;;;5071680;28;20127;-67
2022/01/18 03:39:07;;;;;;;27.08;4.40;;;;;;;;;;5071264;28;20060;-66
2022/01/18 03:41:33;;;;;;;32.90;4.55;;;;;;;;;;5072546;28;20090;-66
2022/01/18 03:43:59;;;;;;;34.50;4.85;;;;;;;;;;5071573;28;20471;-66
2022/01/18 03:46:25;;;;;;;39.78;4.97;;;;;;;;;;5072482;28;20510;-66
2022/01/18 03:48:52;;;;;;;27.38;4.07;;;;;;;;;;5072101;28;20486;-66
2022/01/18 03:51:18;;;;;;;27.40;4.10;;;;;;;;;;5071591;28;20498;-66
2022/01/18 03:53:45;;;;;;;27.42;4.20;;;;;;;;;;5072111;28;20524;-66
2022/01/18 03:56:11;;;;;;;27.10;4.28;;;;;;;;;;5072197;28;20044;-66
2022/01/18 03:58:37;;;;;;;27.45;4.10;;;;;;;;;;5071517;28;20165;-66
2022/01/18 04:01:03;;;;;;;28.67;4.45;;;;;;;;;;5072158;28;20043;-66
2022/01/18 04:03:29;;;;;;;27.67;5.13;;;;;;;;;;5072073;28;20127;-66
2022/01/18 04:05:56;;;;;;;25.08;5.57;;;;;;;;;;5071492;28;20418;-66
2022/01/18 04:08:23;;;;;;;21.63;4.47;;;;;;;;;;5072150;28;20041;-66
2022/01/18 04:10:49;;;;;;;23.48;4.70;;;;;;;;;;5071798;28;20039;-66
2022/01/18 04:13:15;;;;;;;27.02;5.35;;;;;;;;;;5071200;28;20044;-66
2022/01/18 04:15:41;;;;;;;29.35;4.68;;;;;;;;;;5070395;28;20039;-66
2022/01/18 04:18:17;;;;;;;22.13;4.40;;;;;;;;;;5070384;28;20056;-66
2022/01/18 04:28:55;;;;;;;25.27;4.55;;;;;;;;;;5071785;28;20041;-66
2022/01/18 04:31:22;;;;;;;19.85;3.97;;;;;;;;;;5071865;28;20028;-66
2022/01/18 04:33:48;;;;;;;20.45;4.10;;;;;;;;;;5102552;28;20048;-66
2022/01/18 04:36:14;;;;;;;16.50;3.55;;;;;;;;;;5071832;28;20041;-66
2022/01/18 04:38:40;;;;;;;20.85;4.32;;;;;;;;;;5071451;28;20044;-66
2022/01/18 04:41:11;;;;;;;18.38;3.88;;;;;;;;;;5071430;28;20052;-66
2022/01/18 04:49:25;;;;;;;33.80;4.18;;;;;;;;;;5068919;28;20067;-67
2022/01/18 04:51:50;;;;;;;19.95;4.07;;;;;;;;;;5104205;28;20048;-67
2022/01/18 04:54:17;;;;;;;19.75;4.35;;;;;;;;;;5071125;28;20699;-67
2022/01/18 04:59:10;;;;;;;30.85;4.05;;;;;;;;;;5103856;28;20056;-66
2022/01/18 05:01:37;;;;;;;25.67;4.40;;;;;;;;;;5071575;28;20043;-66
2022/01/18 05:04:04;;;;;;;18.63;3.67;;;;;;;;;;5070703;28;20040;-66
2022/01/18 05:06:30;;;;;;;20.27;3.47;;;;;;;;;;5071175;28;20047;-66
2022/01/18 05:08:57;;;;;;;19.80;4.50;;;;;;;;;;5103919;28;20045;-66
2022/01/18 05:11:26;;;;;;;18.02;3.85;;;;;;;;;;5070742;28;20036;-66
2022/01/18 05:21:32;;;;;;;20.27;4.38;;;;;;;;;;5103986;28;20056;-66
2022/01/18 05:23:59;;;;;;;21.95;3.85;;;;;;;;;;5071062;28;20037;-66
2022/01/18 05:26:26;;;;;;;18.00;3.10;;;;;;;;;;5059455;28;20052;-66
2022/01/18 05:28:52;;;;;;;19.13;3.70;;;;;;;;;;5049676;28;20045;-66
2022/01/18 05:31:18;;;;;;;16.90;3.08;;;;;;;;;;5049911;28;20057;-66
2022/01/18 05:33:46;;;;;;;19.75;4.78;;;;;;;;;;5048950;28;20045;-66
2022/01/18 05:36:13;;;;;;;19.70;3.35;;;;;;;;;;5051183;28;20134;-66
2022/01/18 05:38:39;;;;;;;14.77;3.50;;;;;;;;;;5049610;28;20063;-66
2022/01/18 05:41:09;;;;;;;15.15;3.50;;;;;;;;;;5049269;28;20811;-66
2022/01/18 05:43:35;;;;;;;15.63;3.72;;;;;;;;;;5051057;28;20080;-66
2022/01/18 05:46:01;;;;;;;23.30;3.60;;;;;;;;;;5053725;28;20037;-66
2022/01/18 05:48:28;;;;;;;20.02;3.38;;;;;;;;;;5053732;28;20045;-66
2022/01/18 05:50:59;;;;;;;18.45;3.72;;;;;;;;;;5053247;28;20426;-66
2022/01/18 05:53:25;;;;;;;18.00;3.45;;;;;;;;;;5054476;28;20380;-66
2022/01/18 05:55:51;;;;;;;13.90;3.10;;;;;;;;;;5054010;28;20387;-67
2022/01/18 05:58:18;;;;;;;14.88;3.50;;;;;;;;;;5054563;28;20037;-66
2022/01/18 06:00:44;;;;;;;20.13;3.03;;;;;;;;;;5054554;28;20076;-66
2022/01/18 06:03:15;;;;;;;14.30;3.05;;;;;;;;;;5053806;28;20040;-66
2022/01/18 06:08:26;;;;;;;18.02;3.30;;;;;;;;;;5086339;28;20076;-66
2022/01/18 06:10:52;;;;;;;12.68;3.35;;;;;;;;;;5053749;28;20040;-66
2022/01/18 06:13:18;;;;;;;16.67;3.70;;;;;;;;;;5053867;28;20037;-67
2022/01/18 06:15:44;;;;;;;24.17;4.35;;;;;;;;;;5053938;28;20047;-66
2022/01/18 06:18:11;;;;;;;19.00;3.72;;;;;;;;;;5052319;28;20124;-67
2022/01/18 06:20:40;;;;;;;15.88;4.10;;;;;;;;;;5052595;28;20083;-66
2022/01/18 06:23:06;;;;;;;16.92;3.83;;;;;;;;;;5052357;28;20041;-66
2022/01/18 06:25:32;;;;;;;16.27;3.88;;;;;;;;;;5056270;28;20032;-66
2022/01/18 06:27:58;;;;;;;17.02;4.13;;;;;;;;;;5073939;28;20055;-66
2022/01/18 06:30:24;;;;;;;15.68;4.00;;;;;;;;;;5073866;28;20059;-66
2022/01/18 06:32:50;;;;;;;18.02;4.13;;;;;;;;;;5073345;28;20033;-66
2022/01/18 06:35:17;;;;;;;16.90;3.88;;;;;;;;;;5073564;28;20662;-66
2022/01/18 06:37:43;;;;;;;17.52;4.22;;;;;;;;;;5106168;28;20399;-66
2022/01/18 06:40:10;;;;;;;14.82;3.92;;;;;;;;;;5071542;28;20044;-66
2022/01/18 06:42:37;;;;;;;14.75;4.20;;;;;;;;;;5073830;28;20040;-66
2022/01/18 06:45:03;;;;;;;18.27;5.35;;;;;;;;;;5073562;28;20036;-66
2022/01/18 06:47:29;;;;;;;16.35;4.70;;;;;;;;;;5072416;28;20048;-66
2022/01/18 06:49:55;;;;;;;20.10;4.88;;;;;;;;;;5106400;28;20094;-66
2022/01/18 06:52:21;;;;;;;19.50;4.65;;;;;;;;;;5071499;28;20522;-66
2022/01/18 06:54:48;;;;;;;14.60;4.20;;;;;;;;;;5070305;28;20474;-66
2022/01/18 06:57:14;;;;;;;23.00;4.97;;;;;;;;;;5068222;28;20037;-67
2022/01/18 06:59:40;;;;;;;21.20;5.55;;;;;;;;;;5067197;28;20082;-66
2022/01/18 07:02:06;;;;;;;19.75;6.53;;;;;;;;;;5070453;28;20181;-66
2022/01/18 07:04:32;;;;;;;20.67;5.22;;;;;;;;;;5072371;28;20043;-66
2022/01/18 07:06:58;;;;;;;19.08;5.82;;;;;;;;;;5071636;28;20048;-65
2022/01/18 07:09:24;;;;;;;16.73;5.05;;;;;;;;;;5070796;28;20071;-67
2022/01/18 07:11:54;;;;;;;23.65;5.43;;;;;;;;;;5064706;28;20556;-67
2022/01/18 07:14:20;;;;;;;16.98;5.10;;;;;;;;;;5072134;28;20410;-66
2022/01/18 07:16:47;;;;;;;20.05;5.45;;;;;;;;;;5071649;28;20044;-66
2022/01/18 07:19:13;;;;;;;21.17;5.47;;;;;;;;;;5072269;28;20052;-66
2022/01/18 07:21:39;;;;;;;22.58;5.93;;;;;;;;;;5072028;28;20036;-66
2022/01/18 07:24:15;;;;;;;17.60;5.55;;;;;;;;;;5070125;28;20040;-67
2022/01/18 07:26:41;;;;;;;17.88;4.95;;;;;;;;;;5071828;28;20060;-66
2022/01/18 07:29:07;;;;;;;21.13;5.82;;;;;;;;;;5062776;28;20390;-66
2022/01/18 07:31:33;;;;;;;24.67;5.22;;;;;;;;;;5071017;28;20098;-66
2022/01/18 07:33:59;;;;;;;23.98;5.68;;;;;;;;;;5070412;28;20044;-66
2022/01/18 07:36:25;;;;;;;18.17;5.20;;;;;;;;;;5064693;28;20146;-66
2022/01/18 07:38:51;;;;;;;17.60;5.72;;;;;;;;;;5070555;28;20475;-66
2022/01/18 07:41:17;;;;;;;19.20;5.10;;;;;;;;;;5069537;28;20549;-66
2022/01/18 07:43:44;;;;;;;13.90;4.82;;;;;;;;;;5070558;28;20529;-66
2022/01/18 07:46:10;;;;;;;16.52;4.82;;;;;;;;;;5069429;28;20458;-65
2022/01/18 07:48:36;;;;;;;21.70;5.60;;;;;;;;;;5070818;28;20040;-66
2022/01/18 07:51:02;;;;;;;15.40;4.40;;;;;;;;;;5052515;28;20076;-65
2022/01/18 07:53:28;;;;;;;18.90;5.00;;;;;;;;;;5069080;28;20055;-68
2022/01/18 07:55:54;;;;;;;11.57;4.22;;;;;;;;;;5068805;28;20156;-67
2022/01/18 07:58:20;;;;;;;16.45;5.10;;;;;;;;;;5070924;28;20470;-67
2022/01/18 08:00:50;;;;;;;17.15;4.50;;;;;;;;;;5068895;28;20040;-68
2022/01/18 08:03:16;;;;;;;12.40;4.55;;;;;;;;;;5068967;28;20070;-67
2022/01/18 08:05:42;;;;;;;11.10;3.72;;;;;;;;;;5069157;28;20502;-66
2022/01/18 08:08:08;;;;;;;18.85;4.18;;;;;;;;;;5065793;28;20054;-67
2022/01/18 08:10:34;;;;;;;21.65;4.18;;;;;;;;;;5064794;28;20047;-66
2022/01/18 08:13:02;;;;;;;15.63;4.07;;;;;;;;;;5070102;28;20127;-66
2022/01/18 08:15:39;;;;;;;10.40;3.97;;;;;;;;;;5069160;28;20546;-67
2022/01/18 08:18:07;;;;;;;14.95;3.97;;;;;;;;;;5068837;28;20044;-67
2022/01/18 08:20:33;;;;;;;15.38;4.13;;;;;;;;;;5068498;28;20036;-67
2022/01/18 08:22:59;;;;;;;14.80;3.47;;;;;;;;;;5070461;28;20044;-65
2022/01/18 08:25:25;;;;;;;11.52;3.30;;;;;;;;;;5066385;28;20491;-67
2022/01/18 08:27:52;;;;;;;17.15;3.63;;;;;;;;;;5069472;28;20064;-67
2022/01/18 08:30:19;;;;;;;16.83;3.70;;;;;;;;;;5068937;28;20048;-67
2022/01/18 08:32:49;;;;;;;16.00;3.45;;;;;;;;;;5069342;28;20048;-67
2022/01/18 08:35:16;;;;;;;11.60;3.08;;;;;;;;;;5070555;28;20087;-66
2022/01/18 08:37:42;;;;;;;16.95;3.20;;;;;;;;;;5068637;28;20174;-66
2022/01/18 08:40:08;;;;;;;15.57;3.88;;;;;;;;;;5070207;28;20048;-67
2022/01/18 08:42:35;;;;;;;20.35;5.25;;;;;;;;;;5068509;28;20033;-66
2022/01/18 08:45:01;;;;;;;14.65;4.05;;;;;;;;;;5068069;28;20062;-67
2022/01/18 08:47:27;;;;;;;13.88;4.03;;;;;;;;;;5067720;28;20048;-67
2022/01/18 08:49:53;;;;;;;19.13;3.50;;;;;;;;;;5070111;28;20041;-66
2022/01/18 08:52:20;;;;;;;18.55;5.25;;;;;;;;;;5070048;28;20095;-66
2022/01/18 08:54:46;;;;;;;15.23;4.18;;;;;;;;;;5069185;28;20032;-65
2022/01/18 08:57:13;;;;;;;14.50;4.20;;;;;;;;;;5069980;28;20475;-67
2022/01/18 08:59:40;;;;;;;17.27;4.90;;;;;;;;;;5068015;28;20479;-67
2022/01/18 09:02:07;;;;;;;20.05;4.50;;;;;;;;;;5089694;28;20044;-68
2022/01/18 09:04:33;;;;;;;19.05;4.78;;;;;;;;;;5084970;28;20492;-67
2022/01/18 09:07:05;;;;;;;18.83;5.13;;;;;;;;;;5069024;28;20045;-67
2022/01/18 09:09:31;;;;;;;17.90;6.40;;;;;;;;;;5067488;28;20056;-67
2022/01/18 09:11:57;;;;;;;20.40;5.95;;;;;;;;;;5069428;28;20040;-67
2022/01/18 09:14:23;;;;;;;19.60;6.63;;;;;;;;;;5068601;28;20041;-67
2022/01/18 09:16:49;;;;;;;23.85;7.07;;;;;;;;;;5067586;28;20040;-66
2022/01/18 09:19:16;;;;;;;24.17;7.20;;;;;;;;;;5069777;28;20541;-67
2022/01/18 09:21:44;;;;;;;25.33;7.80;;;;;;;;;;5073663;28;20097;-66
2022/01/18 09:24:10;;;;;;;20.55;7.55;;;;;;;;;;5071286;28;20060;-67
2022/01/18 09:26:37;;;;;;;26.90;8.23;;;;;;;;;;5073304;28;20079;-66
2022/01/18 09:29:03;;;;;;;23.58;7.07;;;;;;;;;;5073424;28;20060;-66
2022/01/18 09:31:29;;;;;;;22.90;7.72;;;;;;;;;;5071341;28;20064;-66
2022/01/18 09:33:55;;;;;;;23.73;8.23;;;;;;;;;;5072855;28;20033;-67
2022/01/18 09:36:21;;;;;;;30.25;8.65;;;;;;;;;;5073654;28;20425;-67
2022/01/18 09:38:47;;;;;;;27.27;8.45;;;;;;;;;;5071373;28;20109;-67
2022/01/18 09:41:15;;;;;;;31.73;8.32;;;;;;;;;;5073227;28;20071;-68
2022/01/18 09:43:41;;;;;;;25.98;8.82;;;;;;;;;;5070156;28;20040;-67
2022/01/18 09:46:07;;;;;;;29.48;8.65;;;;;;;;;;5070508;28;20036;-67
2022/01/18 09:48:34;;;;;;;28.92;8.27;;;;;;;;;;5071378;28;20041;-66
2022/01/18 09:51:00;;;;;;;29.95;9.00;;;;;;;;;;5070756;28;20045;-67
2022/01/18 09:53:27;;;;;;;20.95;7.57;;;;;;;;;;5053105;28;20041;-67
2022/01/18 09:55:53;;;;;;;17.15;6.13;;;;;;;;;;5071210;28;20063;-67
2022/01/18 09:58:20;;;;;;;25.77;7.70;;;;;;;;;;5072877;28;20044;-68
2022/01/18 10:00:46;;;;;;;18.20;6.65;;;;;;;;;;5070478;28;20052;-67
2022/01/18 10:03:29;;;;;;;21.67;7.93;;;;;;;;;;5072488;28;20060;-68
2022/01/18 10:05:56;;;;;;;17.17;6.28;;;;;;;;;;5070941;28;20527;-66
2022/01/18 10:08:22;;;;;;;16.60;6.82;;;;;;;;;;5071824;28;20506;-67
2022/01/18 10:10:48;;;;;;;18.63;6.50;;;;;;;;;;5073119;28;20048;-66
2022/01/18 10:13:19;;;;;;;23.20;6.75;;;;;;;;;;5071364;28;20041;-66
2022/01/18 10:15:57;;;;;;;23.98;6.40;;;;;;;;;;5051026;28;20097;-67
2022/01/18 10:18:31;;;;;;;18.52;7.63;;;;;;;;;;5065773;28;20043;-66
2022/01/18 10:20:59;;;;;;;16.92;6.57;;;;;;;;;;5071283;28;20051;-65
2022/01/18 10:23:25;;;;;;;18.85;6.53;;;;;;;;;;5070614;28;20060;-65
2022/01/18 10:25:52;;;;;;;18.48;7.28;;;;;;;;;;5069849;28;20060;-67
2022/01/18 10:28:28;;;;;;;18.10;6.85;;;;;;;;;;5071687;28;20113;-67
2022/01/18 10:30:55;;;;;;;20.33;6.95;;;;;;;;;;5071200;28;20047;-67
2022/01/18 10:33:27;;;;;;;19.45;5.95;;;;;;;;;;5071427;28;20559;-66
2022/01/18 10:36:03;;;;;;;16.88;6.03;;;;;;;;;;5070502;28;20097;-69
2022/01/18 10:38:29;;;;;;;17.05;6.10;;;;;;;;;;5070663;28;20567;-67
2022/01/18 10:40:55;;;;;;;18.75;6.15;;;;;;;;;;5071069;28;20079;-67
2022/01/18 10:43:29;;;;;;;16.30;6.03;;;;;;;;;;5070903;28;20105;-69
2022/01/18 10:46:11;;;;;;;21.13;6.53;;;;;;;;;;5070002;28;20047;-68
2022/01/18 10:48:48;;;;;;;19.85;6.07;;;;;;;;;;5054249;28;20466;-69
2022/01/18 10:51:27;;;;;;;20.38;5.88;;;;;;;;;;5069813;28;20513;-69
2022/01/18 10:54:01;;;;;;;15.50;5.75;;;;;;;;;;5071794;28;20115;-68
2022/01/18 10:56:37;;;;;;;19.92;6.38;;;;;;;;;;5060992;28;20094;-66
2022/01/18 10:59:03;;;;;;;22.13;5.70;;;;;;;;;;5085896;28;20037;-66
2022/01/18 11:01:29;;;;;;;15.57;4.13;;;;;;;;;;5069794;28;20062;-66
2022/01/18 11:04:13;;;;;;;18.45;5.25;;;;;;;;;;5071532;28;20586;-67
2022/01/18 11:06:40;;;;;;;11.45;3.55;;;;;;;;;;5070494;28;20375;-67
2022/01/18 11:09:16;;;;;;;15.30;3.92;;;;;;;;;;5056718;28;20131;-68
2022/01/18 11:11:46;;;;;;;16.20;4.43;;;;;;;;;;5072812;28;20041;-68
2022/01/18 11:14:14;;;;;;;13.00;4.03;;;;;;;;;;5071121;28;20071;-68
2022/01/18 11:16:43;;;;;;;15.35;3.78;;;;;;;;;;5072064;28;20047;-68
2022/01/18 11:21:53;;;;;;;13.90;3.20;;;;;;;;;;5071061;28;20137;-67
2022/01/18 11:24:20;;;;;;;14.32;2.80;;;;;;;;;;5069227;28;20036;-69
2022/01/18 11:26:47;;;;;;;9.07;2.85;;;;;;;;;;5070733;28;20052;-67
2022/01/18 11:29:16;;;;;;;9.25;3.10;;;;;;;;;;5070660;28;20032;-66
2022/01/18 11:31:44;;;;;;;10.02;3.15;;;;;;;;;;5069944;28;20146;-66
2022/01/18 11:34:11;;;;;;;12.07;3.28;;;;;;;;;;5069131;28;20124;-68
2022/01/18 11:36:40;;;;;;;10.48;3.40;;;;;;;;;;5068246;28;20044;-68
2022/01/18 11:39:07;;;;;;;13.00;2.85;;;;;;;;;;5068917;28;20043;-68
2022/01/18 11:41:35;;;;;;;11.07;2.88;;;;;;;;;;5084537;28;20383;-69
2022/01/18 11:44:31;;;;;;;9.43;3.00;;;;;;;;;;5069318;28;20056;-69
2022/01/18 11:46:57;;;;;;;11.30;2.75;;;;;;;;;;5042442;28;20151;-69
2022/01/18 11:49:25;;;;;;;16.55;3.00;;;;;;;;;;5070266;28;20044;-69
2022/01/18 11:51:54;;;;;;;12.88;3.05;;;;;;;;;;5069808;28;20177;-69
2022/01/18 11:54:39;;;;;;;11.85;3.17;;;;;;;;;;5070364;28;20098;-69
2022/01/18 11:57:27;;;;;;;15.93;3.15;;;;;;;;;;5056923;28;20067;-68
2022/01/18 11:59:58;;;;;;;8.45;3.20;;;;;;;;;;5070162;28;20037;-68
2022/01/18 12:02:34;;;;;;;10.18;2.35;;;;;;;;;;5053761;28;20123;-67
2022/01/18 12:05:07;;;;;;;10.32;2.70;;;;;;;;;;5054175;28;20040;-68
2022/01/18 12:07:33;;;;;;;13.90;2.70;;;;;;;;;;5052267;28;20530;-68
2022/01/18 12:10:00;;;;;;;14.65;2.78;;;;;;;;;;5069746;28;20098;-69
2022/01/18 12:12:42;;;;;;;10.80;2.55;;;;;;;;;;5069552;28;20119;-69
2022/01/18 12:15:18;;;;;;;16.30;2.50;;;;;;;;;;5054655;28;20079;-70
2022/01/18 12:17:48;;;;;;;12.32;2.80;;;;;;;;;;5052813;28;20509;-66
2022/01/18 12:20:33;;;;;;;12.23;2.55;;;;;;;;;;5070362;28;20642;-68
2022/01/18 12:23:00;;;;;;;8.57;2.42;;;;;;;;;;5069192;28;20052;-68
2022/01/18 12:25:27;;;;;;;7.45;2.22;;;;;;;;;;5069578;28;20044;-68
2022/01/18 12:27:55;;;;;;;14.57;2.80;;;;;;;;;;5070326;28;20107;-68
2022/01/18 12:30:53;;;;;;;9.88;2.53;;;;;;;;;;5071026;28;20044;-67
2022/01/18 12:33:20;;;;;;;10.40;2.47;;;;;;;;;;5055560;28;20724;-67
2022/01/18 12:35:46;;;;;;;11.80;2.50;;;;;;;;;;5070281;28;20041;-68
2022/01/18 12:38:22;;;;;;;10.35;3.25;;;;;;;;;;5070577;28;20041;-68
2022/01/18 12:40:49;;;;;;;11.23;2.92;;;;;;;;;;5069367;28;20052;-68
2022/01/18 12:46:04;;;;;;;12.02;3.10;;;;;;;;;;5070284;28;20043;-68
2022/01/18 12:48:30;;;;;;;11.93;3.38;;;;;;;;;;5068896;28;20067;-68
2022/01/18 12:50:57;;;;;;;16.80;3.17;;;;;;;;;;5069736;28;20453;-69
2022/01/18 12:53:28;;;;;;;13.60;3.42;;;;;;;;;;5053971;28;20528;-68
2022/01/18 12:55:57;;;;;;;13.00;3.35;;;;;;;;;;5055879;28;20051;-69
2022/01/18 12:58:25;;;;;;;15.65;4.20;;;;;;;;;;5075218;28;20036;-68
2022/01/18 13:00:51;;;;;;;11.55;3.85;;;;;;;;;;5075308;28;20036;-68
2022/01/18 13:03:19;;;;;;;18.83;5.22;;;;;;;;;;5076888;28;20672;-68
2022/01/18 13:05:45;;;;;;;13.30;3.85;;;;;;;;;;5075387;28;20036;-70
2022/01/18 13:08:13;;;;;;;14.88;4.55;;;;;;;;;;5075288;28;20044;-71
2022/01/18 13:10:47;;;;;;;20.13;5.25;;;;;;;;;;5074786;28;20044;-69
2022/01/18 13:13:15;;;;;;;19.02;5.53;;;;;;;;;;5099869;28;20084;-70
2022/01/18 13:26:52;;;;;;;27.95;7.55;;;;;;;;;;5074276;28;20076;-69
2022/01/18 13:29:24;;;;;;;31.08;10.00;;;;;;;;;;5076718;28;20041;-69
2022/01/18 13:32:32;;;;;;;34.70;11.38;;;;;;;;;;5066301;28;20575;-68
2022/01/18 13:35:00;;;;;;;26.98;7.25;;;;;;;;;;5064556;28;20144;-69
2022/01/18 13:37:29;;;;;;;18.55;5.55;;;;;;;;;;5067545;28;20055;-67
2022/01/18 13:39:57;;;;;;;18.63;6.13;;;;;;;;;;5076207;28;20044;-66
2022/01/18 13:42:32;;;;;;;15.30;5.60;;;;;;;;;;5075420;28;20386;-68
2022/01/18 13:45:13;;;;;;;16.95;6.28;;;;;;;;;;5074603;28;20054;-67
2022/01/18 13:47:40;;;;;;;21.27;6.80;;;;;;;;;;5056868;28;20391;-66
2022/01/18 13:50:07;;;;;;;19.65;6.70;;;;;;;;;;5075655;28;20194;-70
2022/01/18 13:52:34;;;;;;;16.67;5.32;;;;;;;;;;5075378;28;20112;-68
2022/01/18 13:55:00;;;;;;;20.23;5.97;;;;;;;;;;5074368;28;20403;-69
2022/01/18 13:57:26;;;;;;;20.70;6.22;;;;;;;;;;5067015;28;20056;-67
2022/01/18 13:59:52;;;;;;;18.45;5.32;;;;;;;;;;5075961;28;20037;-68
2022/01/18 14:02:20;;;;;;;14.15;4.93;;;;;;;;;;5073762;28;20052;-70
2022/01/18 14:04:47;;;;;;;21.95;5.57;;;;;;;;;;5057351;28;20051;-68
2022/01/18 14:07:14;;;;;;;14.02;4.97;;;;;;;;;;5072014;28;20055;-69
2022/01/18 14:09:40;;;;;;;17.27;5.07;;;;;;;;;;5055052;28;20089;-68
2022/01/18 14:12:14;;;;;;;15.82;5.53;;;;;;;;;;5070440;28;20079;-69
2022/01/18 14:14:41;;;;;;;17.80;5.32;;;;;;;;;;5071705;28;20048;-69
2022/01/18 14:17:12;;;;;;;18.92;6.18;;;;;;;;;;5071676;28;20052;-69
2022/01/18 14:19:39;;;;;;;18.70;5.60;;;;;;;;;;5072743;28;20132;-70
2022/01/18 14:22:05;;;;;;;17.60;5.80;;;;;;;;;;5070764;28;20110;-69
2022/01/18 14:24:37;;;;;;;21.63;6.32;;;;;;;;;;5071164;28;20471;-68
2022/01/18 14:27:06;;;;;;;19.70;6.40;;;;;;;;;;5071620;28;20398;-69
2022/01/18 14:29:41;;;;;;;19.75;6.07;;;;;;;;;;5072317;28;20098;-68
2022/01/18 14:32:08;;;;;;;14.52;5.38;;;;;;;;;;5071131;28;20040;-68
2022/01/18 14:34:45;;;;;;;16.58;5.78;;;;;;;;;;5053898;28;20028;-68
2022/01/18 14:37:12;;;;;;;21.27;5.78;;;;;;;;;;5072485;28;20044;-67
2022/01/18 14:40:00;;;;;;;17.42;5.60;;;;;;;;;;5072334;28;20051;-66
2022/01/18 14:42:29;;;;;;;21.80;5.88;;;;;;;;;;5069623;28;20117;-67
2022/01/18 14:45:02;;;;;;;18.92;5.72;;;;;;;;;;5069908;28;20048;-67
2022/01/18 14:47:28;;;;;;;24.42;6.18;;;;;;;;;;5071759;28;20049;-67
2022/01/18 14:50:00;;;;;;;21.50;6.97;;;;;;;;;;5092150;28;20047;-68
2022/01/18 14:52:26;;;;;;;17.23;5.38;;;;;;;;;;5070197;28;20040;-68
2022/01/18 14:54:53;;;;;;;18.73;5.95;;;;;;;;;;5069994;28;20083;-68
2022/01/18 14:57:19;;;;;;;16.63;5.43;;;;;;;;;;5069844;28;20048;-67
2022/01/18 14:59:45;;;;;;;19.73;6.35;;;;;;;;;;5071006;28;20056;-68
2022/01/18 15:02:11;;;;;;;24.27;7.32;;;;;;;;;;5071267;28;20078;-68
2022/01/18 15:04:41;;;;;;;24.40;7.22;;;;;;;;;;5069150;28;20048;-68
2022/01/18 15:07:07;;;;;;;28.08;8.30;;;;;;;;;;5071457;28;20674;-69
2022/01/18 15:09:33;;;;;;;27.25;9.07;;;;;;;;;;5069691;28;20589;-68
2022/01/18 15:12:00;;;;;;;32.05;10.63;;;;;;;;;;5088074;28;20370;-68
2022/01/18 15:14:27;;;;;;;31.67;11.13;;;;;;;;;;5069641;28;20044;-67
2022/01/18 15:16:53;;;;;;;32.15;11.00;;;;;;;;;;5071891;28;20088;-68
2022/01/18 15:19:19;;;;;;;29.60;11.25;;;;;;;;;;5070032;28;20040;-67
2022/01/18 15:21:45;;;;;;;35.67;12.25;;;;;;;;;;5071250;28;20549;-66
2022/01/18 15:24:11;;;;;;;35.70;13.02;;;;;;;;;;5070955;28;20097;-66
2022/01/18 15:26:38;;;;;;;30.85;12.88;;;;;;;;;;5067545;28;20098;-65
2022/01/18 15:29:04;;;;;;;37.00;14.68;;;;;;;;;;5071290;28;20119;-70
2022/01/18 15:31:30;;;;;;;38.72;14.95;;;;;;;;;;5063264;28;20067;-66
2022/01/18 15:33:56;;;;;;;46.63;15.30;;;;;;;;;;5059506;28;20058;-68
2022/01/18 15:36:22;;;;;;;34.38;15.68;;;;;;;;;;5070315;28;20048;-67
2022/01/18 15:38:48;;;;;;;38.53;16.45;;;;;;;;;;5071352;28;20769;-67
2022/01/18 15:41:14;;;;;;;45.72;17.50;;;;;;;;;;5070098;28;20036;-67
2022/01/18 15:43:41;;;;;;;52.45;18.75;;;;;;;;;;5069724;28;20554;-66
2022/01/18 15:46:07;;;;;;;47.15;18.77;;;;;;;;;;5070217;28;20040;-68
2022/01/18 15:48:34;;;;;;;46.03;18.67;;;;;;;;;;5069658;28;20498;-67
2022/01/18 15:51:00;;;;;;;55.75;20.30;;;;;;;;;;5069435;28;20042;-69
2022/01/18 15:53:26;;;;;;;60.20;20.48;;;;;;;;;;5069768;28;20044;-68